Snake River Valley :: PerryB1

liberation: 2021-10-02  08:32     latitude: 41.485500     longitude: -112.055862 46 birds
# LOFT PRING MILES ARRIVAL SPEED ToWin
1 M&T Wall AU21-SRV-0368 148.652 2021-10-02 11:31:52.856 1454.449 00:00:00
2 M&T Wall AU21-SRV-0375 148.652 2021-10-02 11:31:55.909 1454.037 00:00:03
3 M&T Wall AU21-SRV-0383 148.652 2021-10-02 11:31:56.032 1454.021 00:00:03
4 M&T Wall AU21-SRV-0029 148.652 2021-10-02 11:31:56.427 1453.968 00:00:04
5 M&T Wall AU21-SRV-0028 148.652 2021-10-02 11:31:56.563 1453.949 00:00:04
6 M&T Wall AU21-SRV-0010 148.652 2021-10-02 11:31:56.941 1453.898 00:00:04
7 M&T Wall AU21-SRV-0373 148.652 2021-10-02 11:31:57.550 1453.816 00:00:05
8 M&T Wall AU21-SRV-0378 148.652 2021-10-02 11:31:59.003 1453.621 00:00:06
9 M&T Wall AU21-SRV-0365 148.652 2021-10-02 11:32:00.719 1453.390 00:00:08
10 M&T Wall AU21-SRV-0018 148.652 2021-10-02 11:32:00.819 1453.376 00:00:08
11 M&T Wall AU21-SRV-0367 148.652 2021-10-02 11:32:01.197 1453.326 00:00:08
12 M&T Wall AU21-SRV-0351 148.652 2021-10-02 11:32:02.783 1453.112 00:00:10
13 M&T Wall AU21-SRV-0361 148.652 2021-10-02 11:32:02.892 1453.098 00:00:10
14 M&T Wall AU21-SRV-0009 148.652 2021-10-02 11:32:04.969 1452.818 00:00:12
15 M&T Wall AU21-SRV-0024 148.652 2021-10-02 11:32:05.352 1452.767 00:00:12
16 M&T Wall AU21-SRV-0001 148.652 2021-10-02 11:33:38.033 1440.412 00:01:45
17 M&T Wall AU21-SRV-0008 148.652 2021-10-02 11:34:37.200 1432.634 00:02:44
18 M&T Wall AU21-SRV-0031 148.652 2021-10-02 11:34:41.824 1432.030 00:02:49
19 Acorn Loft AU21-ARPU-1719 137.391 2021-10-02 11:23:01.923 1413.818 00:04:47
20 M&T Wall AU21-SRV-0369 148.652 2021-10-02 11:40:43.075 1386.342 00:08:50
21 M&T Wall AU21-SRV-0017 148.652 2021-10-02 11:41:15.076 1382.435 00:09:22
22 Acorn Loft AU21-ARPU-1712 137.391 2021-10-02 11:27:13.071 1380.043 00:08:58
23 Acorn Loft AU21-ARPU-1740 137.391 2021-10-02 11:27:14.314 1379.880 00:08:59
24 Acorn Loft AU21-ARPU-1732 137.391 2021-10-02 11:27:30.143 1377.806 00:09:15
25 Acorn Loft AU21-ARPU-1728 137.391 2021-10-02 11:27:36.840 1376.930 00:09:22
26 Acorn Loft AU21-ARPU-1733 137.391 2021-10-02 11:27:45.520 1375.797 00:09:30
27 Acorn Loft AU21-ARPU-1718 137.391 2021-10-02 11:30:42.546 1353.083 00:12:27
28 M&T Wall AU21-SRV-0366 148.652 2021-10-02 11:53:40.858 1297.235 00:21:48
29 Acorn Loft AU21-ARPU-1720 137.391 2021-10-02 11:42:23.235 1270.086 00:24:08
30 Acorn Loft AU21-ARPU-1711 137.391 2021-10-02 11:42:38.845 1268.353 00:24:24
31 Acorn Loft AU21-ARPU-1726 137.391 2021-10-02 11:56:43.169 1181.168 00:38:28
32 Acorn Loft AU21-ARPU-1736 137.391 2021-10-02 11:57:23.841 1177.270 00:39:09
AU21-SRV-0201 0 0000-00-00 00:00:00.000 0.000 00:00:00
AU21-SRV-0202 0 0000-00-00 00:00:00.000 0.000 00:00:00
AU21-SRV-0208 0 0000-00-00 00:00:00.000 0.000 00:00:00
AU21-SRV-0210 0 0000-00-00 00:00:00.000 0.000 00:00:00
AU21-SRV-0213 0 0000-00-00 00:00:00.000 0.000 00:00:00
AU21-SRV-0216 0 0000-00-00 00:00:00.000 0.000 00:00:00
AU21-SRV-0221 0 0000-00-00 00:00:00.000 0.000 00:00:00
AU21-SRV-0225 0 0000-00-00 00:00:00.000 0.000 00:00:00
AU21-SRV-0234 0 0000-00-00 00:00:00.000 0.000 00:00:00
AU21-SRV-0240 0 0000-00-00 00:00:00.000 0.000 00:00:00
AU21-SRV-0242 0 0000-00-00 00:00:00.000 0.000 00:00:00
AU21-SRV-0245 0 0000-00-00 00:00:00.000 0.000 00:00:00
AU21-SRV-0246 0 0000-00-00 00:00:00.000 0.000 00:00:00
Acorn Loft AU21-ARPU-1716 0 0000-00-00 00:00:00.000 0.000 00:00:00